createdAt,value
2023-04-24T00:01:16.233Z,14.100048756957767
2023-04-24T00:04:18.204Z,14.059583606428442
2023-04-24T00:07:17.923Z,14.082064243383138
2023-04-24T00:11:16.184Z,14.035176064042115
2023-04-24T00:14:16.619Z,14.049949049438874
2023-04-24T00:17:17.022Z,13.965164992050267
2023-04-24T00:21:18.781Z,13.974157236804967
2023-04-24T00:24:17.371Z,13.974157236804967
2023-04-24T00:27:16.995Z,13.951034323522254
2023-04-24T00:31:16.403Z,13.912496147814455
2023-04-24T00:34:17.142Z,13.858542729326654
2023-04-24T00:37:16.845Z,13.82963912547866
2023-04-24T00:41:15.684Z,13.814223873858372
2023-04-24T00:44:16.431Z,13.780824171000223
2023-04-24T00:47:16.887Z,13.729440036767574
2023-04-24T00:51:15.917Z,13.724943926406922
2023-04-24T00:54:16.807Z,13.71530940495586
2023-04-24T00:57:16.443Z,13.634379465162146
2023-04-24T01:01:16.934Z,13.60483363211615
2023-04-24T01:04:17.867Z,13.55537649833459
2023-04-24T01:07:18.351Z,13.55537649833459
2023-04-24T01:11:16.415Z,13.515553890728915
2023-04-24T01:14:16.607Z,13.550238096370958
2023-04-24T01:17:16.850Z,13.482154297828675
2023-04-24T01:21:20.137Z,13.480227398613442
2023-04-24T01:24:17.390Z,13.47637360030576
2023-04-24T01:27:16.972Z,13.427558835911714
2023-04-24T01:31:16.770Z,13.38966318166349
2023-04-24T01:34:18.316Z,13.369109613099136
2023-04-24T01:37:17.960Z,13.364613520596412
2023-04-24T01:41:16.007Z,13.352409842069392
2023-04-24T01:44:16.156Z,13.312587323557818
2023-04-24T01:47:16.478Z,13.278545507075705
2023-04-24T01:51:16.007Z,13.284968490339907
2023-04-24T01:54:16.108Z,13.268911033032055
2023-04-24T01:57:16.792Z,13.20981961461366
2023-04-24T02:01:18.507Z,13.117971073263561
2023-04-24T02:04:16.819Z,13.131459314769382
2023-04-24T02:07:16.995Z,13.143662963574116
2023-04-24T02:11:16.319Z,13.168712563632289
2023-04-24T02:14:16.639Z,13.155866614020487
2023-04-24T02:17:17.341Z,13.137882287619869
2023-04-24T02:21:16.217Z,13.078790954548458
2023-04-24T02:24:17.219Z,13.076864063900667
2023-04-24T02:27:16.465Z,13.107052022084826
2023-04-24T02:31:16.112Z,13.112190398946405
2023-04-24T02:34:17.309Z,13.068514204899838
2023-04-24T02:37:16.481Z,13.07943325144015
2023-04-24T02:41:15.764Z,13.049887599128942
2023-04-24T02:44:16.147Z,13.013918991911577
2023-04-24T02:47:16.285Z,12.98758484209866
2023-04-24T02:51:16.601Z,12.97987728750195
2023-04-24T02:54:16.875Z,12.99786158257957
2023-04-24T02:57:16.807Z,13.04796070909506
2023-04-24T03:01:16.237Z,13.066587314470326
2023-04-24T03:04:17.068Z,13.090994596268228
2023-04-24T03:07:16.499Z,13.101913645514287
2023-04-24T03:11:15.891Z,13.141093774215642
2023-04-24T03:14:16.617Z,13.170639456230948
2023-04-24T03:17:16.232Z,13.15201282949165
2023-04-24T03:21:16.323Z,13.171281753772927
2023-04-24T03:24:16.680Z,13.16421648106125
2023-04-24T03:27:16.769Z,13.234869232939037
2023-04-24T03:31:17.660Z,13.234226934946856
2023-04-24T03:34:16.502Z,13.245788299501873
2023-04-24T03:37:16.601Z,13.30809123385634
2023-04-24T03:41:15.855Z,13.275976313897354
2023-04-24T03:44:16.000Z,13.353694439731772
2023-04-24T03:47:16.392Z,13.417924346042856
2023-04-24T03:51:15.989Z,13.461600708309561
2023-04-24T03:54:16.286Z,13.484081197084834
2023-04-24T03:57:16.268Z,13.502065592115922
2023-04-24T04:01:17.120Z,13.504634791697118
2023-04-24T04:04:17.224Z,13.482154297828675
2023-04-24T04:07:16.926Z,13.480227398613442
2023-04-24T04:11:16.154Z,13.52326149083674
2023-04-24T04:14:16.439Z,13.534180592110442
2023-04-24T04:17:16.588Z,13.52326149083674
2023-04-24T04:21:15.665Z,13.520049990712232
2023-04-24T04:24:16.133Z,13.47637360030576
2023-04-24T04:27:17.838Z,13.462243007911548
2023-04-24T04:31:16.441Z,13.511700090920566
2023-04-24T04:34:16.945Z,13.52069229072804
2023-04-24T04:37:17.312Z,13.545741994891523
2023-04-24T04:41:18.190Z,13.566295603473645
2023-04-24T04:44:16.767Z,13.630525660306102
2023-04-24T04:47:17.482Z,13.655575394796688
2023-04-24T04:51:15.952Z,13.733293845825482
2023-04-24T04:54:16.885Z,13.730724639768686
2023-04-24T04:57:16.306Z,13.745497575588889
2023-04-24T05:01:16.209Z,13.793027907157375
2023-04-24T05:04:16.958Z,13.828354521076927
2023-04-24T05:07:16.608Z,13.850192798380249
2023-04-24T05:11:16.539Z,13.921488387348655
2023-04-24T05:14:18.948Z,13.943326687071021
2023-04-24T05:17:17.132Z,13.973514933578645
2023-04-24T05:21:16.201Z,14.033891456729998
2023-04-24T05:24:16.461Z,14.058298998770715
2023-04-24T05:27:16.564Z,14.089771891621421
2023-04-24T05:31:16.676Z,14.125098621092274
2023-04-24T05:34:17.825Z,14.164279191685273
2023-04-24T05:37:16.919Z,14.178409893428034
2023-04-24T05:41:16.297Z,14.236217332567685
2023-04-24T05:44:16.658Z,14.265121065950462
2023-04-24T05:47:16.470Z,14.301090169242617
2023-04-24T05:51:16.492Z,14.315220892294837
2023-04-24T05:54:17.124Z,14.358255380603078
2023-04-24T05:57:16.892Z,14.386516846716404
2023-04-24T06:01:16.119Z,14.407712952078963
2023-04-24T06:04:16.935Z,14.431478288222934
2023-04-24T06:07:16.861Z,14.454601323960015
2023-04-24T06:11:16.786Z,14.494424343766877
2023-04-24T06:14:16.690Z,14.549662755019744
2023-04-24T06:17:16.834Z,14.562508901991896
2023-04-24T06:21:17.098Z,14.605543507602215
2023-04-24T06:24:17.225Z,14.63637428238153
2023-04-24T06:27:16.818Z,14.690328163456524
2023-04-24T06:31:17.018Z,14.754559016096845
2023-04-24T06:34:17.108Z,14.789886004432628
2023-04-24T06:37:18.320Z,14.804016803618651
2023-04-24T06:41:16.456Z,14.803374494516992
2023-04-24T06:44:17.016Z,14.7802513698859
2023-04-24T06:47:16.802Z,14.76419364791509
2023-04-24T06:51:15.992Z,14.686474313744203
2023-04-24T06:54:16.442Z,14.676197381978364
2023-04-24T06:57:17.927Z,14.631878127073652
2023-04-24T07:01:16.223Z,14.572143513414721
2023-04-24T07:04:16.744Z,14.54195506770957
2023-04-24T07:07:16.787Z,14.508555096932469
2023-04-24T07:11:15.821Z,14.474512831678386
2023-04-24T07:14:16.382Z,14.435332127103175
2023-04-24T07:17:16.417Z,14.405143726922779
2023-04-24T07:21:16.662Z,14.367889970334454
2023-04-24T07:24:17.043Z,14.35375923907859
2023-04-24T07:27:16.892Z,14.345409262552858
2023-04-24T07:31:16.248Z,14.317790114904437
2023-04-24T07:34:16.520Z,14.259340318537216
2023-04-24T07:37:16.332Z,14.261267234300703
2023-04-24T07:41:16.042Z,14.271544119063856
2023-04-24T07:44:16.239Z,14.235575027485993
2023-04-24T07:47:17.178Z,14.29209789208262
2023-04-24T07:51:16.652Z,14.333847757862895
2023-04-24T07:54:17.166Z,14.379451479362706
2023-04-24T07:57:17.037Z,14.416705240698594
2023-04-24T08:01:17.032Z,14.456528243870798
2023-04-24T08:04:17.171Z,14.464235923923207
2023-04-24T08:07:17.586Z,14.52397046653241
2023-04-24T08:11:16.491Z,14.59205504693091
2023-04-24T08:14:17.233Z,14.6222435093071
2023-04-24T08:17:17.366Z,14.662708910802394
2023-04-24T08:21:18.368Z,14.737858990035694
2023-04-24T08:24:17.127Z,14.78410522358181
2023-04-24T08:27:16.990Z,14.842555358040045
2023-04-24T08:31:15.862Z,14.879809309542178
2023-04-24T08:34:16.253Z,14.912567107123413
2023-04-24T08:37:16.213Z,14.926055615447694
2023-04-24T08:41:18.849Z,14.98386353098067
2023-04-24T08:44:19.523Z,15.032679132782869
2023-04-24T08:47:17.976Z,15.057729254431706
2023-04-24T08:51:17.865Z,15.08663324954432
2023-04-24T08:54:18.248Z,15.11296800866412
2023-04-24T08:57:17.557Z,15.1360912180965
2023-04-24T09:01:17.618Z,15.164995238174743
2023-04-24T09:04:20.464Z,15.186191525418053
2023-04-24T09:07:19.625Z,15.21830712158635
2023-04-24T09:11:16.779Z,15.276757535786965
2023-04-24T09:14:17.473Z,15.284465285524856
2023-04-24T09:17:16.872Z,15.29988078696515
2023-04-24T09:21:16.103Z,15.350623497707511
2023-04-24T09:24:20.366Z,15.369892888968844
2023-04-24T09:27:18.537Z,15.401366236830654
2023-04-24T09:31:20.162Z,15.440547358609274
2023-04-24T09:34:22.056Z,15.471378417150936
2023-04-24T09:37:28.352Z,15.496428659930825
2023-04-24T09:41:27.290Z,15.594702756091374
2023-04-24T09:44:28.384Z,15.678846021056234
2023-04-24T09:47:26.643Z,15.74757378393051
2023-04-24T09:51:17.046Z,15.833001823445375
2023-04-24T09:54:19.356Z,15.860621432375865
2023-04-24T09:57:17.061Z,15.929991650025567
2023-04-24T10:01:16.188Z,15.94155335812402
2023-04-24T10:04:18.100Z,15.971742269549576
2023-04-24T10:07:16.716Z,16.026339262532655
2023-04-24T10:11:16.319Z,16.057170520144517
2023-04-24T10:14:18.185Z,16.09763656166033
2023-04-24T10:17:17.540Z,16.180495655365757
2023-04-24T10:21:17.407Z,16.259500908212793
2023-04-24T10:24:18.978Z,16.32694447117401
2023-04-24T10:27:17.643Z,16.39117648251058
2023-04-24T10:31:15.854Z,16.447700690103467
2023-04-24T10:34:20.009Z,16.479174411867643
2023-04-24T10:37:16.611Z,16.510005823366008
2023-04-24T10:41:18.635Z,16.53056010351902
2023-04-24T10:44:16.900Z,16.633331574133262
2023-04-24T10:47:16.790Z,16.72261438372816
2023-04-24T10:51:16.687Z,16.766292336973947
2023-04-24T10:54:26.209Z,16.8125396045064
2023-04-24T10:57:32.373Z,16.869064074615835
2023-04-24T11:01:24.955Z,16.93072717308032
2023-04-24T11:04:30.171Z,17.00587913099771
2023-04-24T11:07:16.968Z,17.04506094571125
2023-04-24T11:11:18.409Z,17.140125091085157
2023-04-24T11:14:17.107Z,17.219773505789725
2023-04-24T11:17:29.593Z,17.295568029872904
2023-04-24T11:21:17.986Z,17.372647271844563
2023-04-24T11:24:26.533Z,17.44394562896923
2023-04-24T11:27:19.146Z,17.510105415878296
2023-04-24T11:31:48.085Z,17.574338264859488
2023-04-24T11:34:18.032Z,17.660410353789576
2023-04-24T11:37:16.728Z,17.693169155357463
2023-04-24T11:41:16.341Z,17.745197864511375
2023-04-24T11:44:22.324Z,17.81778117527465
2023-04-24T11:47:16.736Z,17.86788296348095
2023-04-24T11:51:16.293Z,17.921196435161345
2023-04-24T11:54:16.651Z,17.959736313716075
2023-04-24T11:57:16.897Z,18.004699526054264
2023-04-24T12:01:16.476Z,18.040027779951924
2023-04-24T12:04:18.304Z,18.092056688012327
2023-04-24T12:07:16.904Z,18.140873962211572
2023-04-24T12:11:17.304Z,18.19611459364105
2023-04-24T12:14:16.876Z,18.267413597880296
2023-04-24T12:17:17.112Z,18.332931651175024
2023-04-24T12:21:21.358Z,18.386245396122195
2023-04-24T12:24:17.290Z,18.43698983306276
2023-04-24T12:27:20.244Z,18.485807292853497
2023-04-24T12:31:16.466Z,18.538478792086245
2023-04-24T12:34:20.916Z,18.602070033122526
2023-04-24T12:37:16.026Z,18.64831823641589
2023-04-24T12:41:16.795Z,18.6875007604307
2023-04-24T12:44:17.024Z,18.751092105913358
2023-04-24T12:47:17.053Z,18.826245571672917
2023-04-24T12:51:16.552Z,18.94828979399499
2023-04-24T12:54:16.848Z,19.05106400327968
2023-04-24T12:57:18.387Z,19.182101288956254
2023-04-24T13:01:16.120Z,19.27781001426274
2023-04-24T13:04:18.211Z,19.393431427807172
2023-04-24T13:07:17.141Z,19.535389031493104
2023-04-24T13:11:16.275Z,19.62788641313091
2023-04-24T13:14:16.850Z,19.702398261359484
2023-04-24T13:17:16.862Z,19.800676913379085
2023-04-24T13:21:16.518Z,19.837932900794204
2023-04-24T13:24:17.305Z,19.87197717853269
2023-04-24T13:27:17.208Z,19.917583683822976
2023-04-24T13:31:16.368Z,19.915656647924333
2023-04-24T13:34:17.160Z,19.959978483947726
2023-04-24T13:37:16.724Z,20.02292837522191
2023-04-24T13:41:16.221Z,20.076243113214513
2023-04-24T13:44:17.682Z,20.11542625388038
2023-04-24T13:47:16.577Z,20.180945641649394
2023-04-24T13:51:16.704Z,20.232975777404864
2023-04-24T13:54:17.405Z,20.260596725793675
2023-04-24T13:57:17.722Z,20.322904477455086
2023-04-24T14:01:16.880Z,20.31391160343919
2023-04-24T14:04:16.923Z,20.339605531563574
2023-04-24T14:07:16.876Z,20.339605531563574
2023-04-24T14:11:17.220Z,20.38135818028395
2023-04-24T14:14:16.580Z,20.48734575947783
2023-04-24T14:17:16.447Z,20.54001842064463
2023-04-24T14:21:16.969Z,20.583055861613776
2023-04-24T14:24:17.021Z,20.681977818240647
2023-04-24T14:27:16.641Z,20.690328377957123
2023-04-24T14:31:16.933Z,20.739147050140673
2023-04-24T14:34:17.068Z,20.821368031084784
2023-04-24T14:37:17.447Z,20.86440560550409
2023-04-24T14:41:15.980Z,20.9222173047624
2023-04-24T14:44:16.463Z,20.960758458064902
2023-04-24T14:47:18.516Z,20.987737275117343
2023-04-24T14:51:15.692Z,20.99287609832254
2023-04-24T14:54:16.038Z,21.051330232765757
2023-04-24T14:57:16.703Z,21.077024369710124
2023-04-24T15:01:17.801Z,21.137405620169375
2023-04-24T15:04:16.985Z,21.152822116087556
2023-04-24T15:07:16.629Z,21.16374213561439
2023-04-24T15:11:17.009Z,21.115565588769094
2023-04-24T15:14:17.552Z,21.14382915981696
2023-04-24T15:17:16.927Z,21.15346447014099
2023-04-24T15:21:16.788Z,21.099506745505003
2023-04-24T15:24:17.414Z,21.114923234983962
2023-04-24T15:27:17.346Z,21.071885541739174
2023-04-24T15:31:16.652Z,20.99608786297358
2023-04-24T15:34:17.502Z,20.972963160023575
2023-04-24T15:37:18.347Z,20.935706706556083
2023-04-24T15:41:16.001Z,20.901662029694943
2023-04-24T15:44:16.328Z,20.92029024752701
2023-04-24T15:47:16.455Z,20.924144362038714
2023-04-24T15:51:16.704Z,20.893311450528927
2023-04-24T15:54:16.997Z,20.88881498514247
2023-04-24T15:57:17.444Z,20.898450268386295
2023-04-24T16:01:17.099Z,20.90101967742412
2023-04-24T16:04:17.577Z,20.967181985206935
2023-04-24T16:07:18.316Z,20.984525510761888
2023-04-24T16:11:16.519Z,21.026278456250385
2023-04-24T16:14:16.960Z,21.118777357762973
2023-04-24T16:17:16.938Z,21.082805551525325
2023-04-24T16:21:16.187Z,21.008292569684365
2023-04-24T16:24:16.522Z,21.028847868907995
2023-04-24T16:27:16.668Z,20.999941980704897
2023-04-24T16:31:16.138Z,20.93442200153695
2023-04-24T16:34:16.879Z,20.928640829175947
2023-04-24T16:37:16.546Z,20.922859657183288
2023-04-24T16:41:16.170Z,20.91129731430301
2023-04-24T16:44:16.350Z,20.898450268386295
2023-04-24T16:47:16.468Z,20.880464407158797
2023-04-24T16:51:16.511Z,20.845135047270105
2023-04-24T16:54:16.481Z,20.80595159148252
2023-04-24T16:57:16.553Z,20.81879862430251
2023-04-24T17:01:16.812Z,20.7410741035289
2023-04-24T17:04:17.168Z,20.696751885954292
2023-04-24T17:07:17.858Z,20.656926143702368
2023-04-24T17:11:16.831Z,20.592048762305147
2023-04-24T17:14:17.437Z,20.544514868746138
2023-04-24T17:17:18.706Z,20.48541871147836
2023-04-24T17:21:17.128Z,20.401270988748003
2023-04-24T17:24:16.419Z,20.335109093616573
2023-04-24T17:27:16.741Z,20.320335084788166
2023-04-24T17:31:16.524Z,20.20278544808616
2023-04-24T17:34:16.895Z,20.119280334204177
2023-04-24T17:37:19.958Z,20.05504568351398
2023-04-24T17:41:16.956Z,19.986314657636466
2023-04-24T17:44:16.826Z,19.915656647924333
2023-04-24T17:47:17.181Z,19.861057314470326
2023-04-24T17:51:16.204Z,19.78461830283195
2023-04-24T17:54:18.144Z,19.69725951124128
2023-04-24T17:57:16.654Z,19.667069360174445
2023-04-24T18:01:16.325Z,19.59384222697854
2023-04-24T18:04:16.830Z,19.552732283367458
2023-04-24T18:07:16.666Z,19.474366504954467
2023-04-24T18:11:16.509Z,19.390219719885863
2023-04-24T18:14:16.850Z,19.332408996742743
2023-04-24T18:17:16.783Z,19.300934285184574
2023-04-24T18:21:16.352Z,19.202656174468938
2023-04-24T18:24:16.642Z,19.169254487875513
2023-04-24T18:27:16.507Z,19.120436660357882
2023-04-24T18:31:16.269Z,19.035005525405087
2023-04-24T18:34:16.611Z,18.967559949368297
2023-04-24T18:37:17.135Z,18.91488820104314
2023-04-24T18:41:16.335Z,18.818537521037797
2023-04-24T18:44:17.113Z,18.78449363856571
2023-04-24T18:47:16.490Z,18.703559176800717
2023-04-24T18:51:16.536Z,18.599500689186335
2023-04-24T18:54:16.825Z,18.584726962965213
2023-04-24T18:57:16.860Z,18.488376633570077
2023-04-24T19:01:16.283Z,18.41001177444705
2023-04-24T19:04:16.525Z,18.365690695564354
2023-04-24T19:07:16.620Z,18.313661630588832
2023-04-24T19:11:16.377Z,18.21795392232025
2023-04-24T19:14:17.104Z,18.16528260916102
2023-04-24T19:17:22.539Z,18.14023162948579
2023-04-24T19:21:16.698Z,18.04773576444859
2023-04-24T19:24:19.464Z,17.99056822834691
2023-04-24T19:27:17.014Z,17.935327722063903
2023-04-24T19:31:16.197Z,17.842832065919445
2023-04-24T19:34:16.968Z,17.81778117527465
2023-04-24T19:37:16.684Z,17.77859902685386
2023-04-24T19:41:17.509Z,17.682249553520613
2023-04-24T19:44:17.483Z,17.64242513442887
2023-04-24T19:47:17.260Z,17.60067374608625
2023-04-24T19:51:16.334Z,17.522309653685443
2023-04-24T19:54:16.631Z,17.47092340033014
2023-04-24T19:57:16.936Z,17.434310712570095
2023-04-24T20:01:16.412Z,17.325757391843943
2023-04-24T20:04:19.105Z,17.285290802557665
2023-04-24T20:07:16.959Z,17.24353957856074
2023-04-24T20:11:16.296Z,17.163891142992362
2023-04-24T20:14:16.453Z,17.09773160854538
2023-04-24T20:17:17.223Z,17.07910417551175
2023-04-24T20:21:16.112Z,16.99110566426907
2023-04-24T20:24:17.267Z,16.953850845809303
2023-04-24T20:27:16.686Z,16.897968646802838
2023-04-24T20:31:16.699Z,16.81189728118479
2023-04-24T20:34:17.084Z,16.77913879781272
2023-04-24T20:37:17.055Z,16.721972061043196
2023-04-24T20:41:17.517Z,16.641681761234302
2023-04-24T20:44:16.918Z,16.605711729966515
2023-04-24T20:47:16.927Z,16.546618138128633
2023-04-24T20:51:16.132Z,16.484955300725506
2023-04-24T20:54:16.492Z,16.40723449245015
2023-04-24T20:57:16.533Z,16.36997991374228
2023-04-24T21:01:17.032Z,16.274916575326642
2023-04-24T21:04:16.620Z,16.234450454739363
2023-04-24T21:07:16.741Z,16.161226091937078
2023-04-24T21:11:16.698Z,16.08800178823376
2023-04-24T21:14:17.052Z,16.03533171158715
2023-04-24T21:17:17.462Z,16.00578509661218
2023-04-24T21:21:16.366Z,15.879890931958016
2023-04-24T21:24:16.577Z,15.834928772632793
2023-04-24T21:27:16.714Z,15.784828107061276
2023-04-24T21:31:16.064Z,15.716100315965377
2023-04-24T21:34:16.362Z,15.667284346436281
2023-04-24T21:37:16.449Z,15.603052847599974
2023-04-24T21:41:16.411Z,15.506705684610642
2023-04-24T21:44:16.563Z,15.456605200292325
2023-04-24T21:47:16.461Z,15.38466609170755
2023-04-24T21:51:16.888Z,15.316580916481325
2023-04-24T21:54:17.085Z,15.245284231153438
2023-04-24T21:57:16.885Z,15.206103193703166
2023-04-24T22:01:16.561Z,15.107829518479502
2023-04-24T22:04:17.180Z,15.065436985561337
2023-04-24T22:07:16.885Z,14.994140497598346
2023-04-24T22:11:26.939Z,14.912567107123413
2023-04-24T22:14:16.850Z,14.848978452035226
2023-04-24T22:17:17.467Z,14.804659112724858
2023-04-24T22:21:16.650Z,14.747493620080423
2023-04-24T22:24:17.572Z,14.71858973301578
2023-04-24T22:27:17.021Z,14.663351218908156
2023-04-24T22:31:16.091Z,14.532320459492713
2023-04-24T22:34:17.196Z,14.502132027038897
2023-04-24T22:37:16.303Z,14.45845516382251
2023-04-24T22:41:16.257Z,14.4179898534313
2023-04-24T22:44:16.545Z,14.36146691039985
2023-04-24T22:47:17.422Z,14.32999392329366
2023-04-24T22:51:18.237Z,14.22594045180631
2023-04-24T22:54:16.976Z,14.185475245124781
2023-04-24T22:57:17.143Z,14.121244795390613
2023-04-24T23:01:17.610Z,14.085275763402842
2023-04-24T23:04:17.515Z,14.006272403919137
2023-04-24T23:07:17.246Z,13.966449598389227
2023-04-24T23:11:16.618Z,13.919561478802006
2023-04-24T23:14:17.068Z,13.86432345120129
2023-04-24T23:17:16.946Z,13.833492938793006
2023-04-24T23:21:16.448Z,13.79045869940892
2023-04-24T23:24:16.606Z,13.7159517063541
2023-04-24T23:27:16.736Z,13.714667103562169
2023-04-24T23:31:15.817Z,13.642087075365362
2023-04-24T23:34:18.563Z,13.569507105235243
2023-04-24T23:37:18.383Z,13.513626990804278
2023-04-24T23:41:17.101Z,13.451966214825461
2023-04-24T23:44:17.260Z,13.397370771075657
2023-04-24T23:47:17.136Z,13.374890303787197
2023-04-24T23:51:16.292Z,13.295245264508504
2023-04-24T23:54:16.322Z,13.23615382893704
2023-04-24T23:57:16.307Z,13.195046766023097
